Nearby METAR Reports


Data Updates Approximately Every Four Hours

METAR is the international standard code format for hourly surface weather observations which is analogous to the SA coding currently used in the US. The acronym roughly translates from French as Aviation Routine Weather Report. SPECI is merely the code name given to METAR formatted products which are issued on a special non-routine basis as dictated by changing meteorological conditions. The SPECI acronym roughly translates as Aviation Selected Special Weather Report.

KSLH - Cheboygan, Michigan, USA
Distance from station: W 9mi, 14km
Updated: 08/14/2018 9:35am
Clear
Clear
 Wind from SW
Wind: SW 7 mph , 11 km/h
Temperature: 75°F , 24°C
Dew Point: 64°F , 18°C
Humidity: 69%
Barometer: 29.90 inHg , 1012.5 hPa
Clouds: Clear
Visibility: 10 miles , 16 km
2018/08/14 13:35 KSLH 141335Z AUTO 22006KT 10SM CLR 24/18 A2990 RMK AO2 T02440191
KMCD - Mackinac Island, Michigan, USA
Distance from station: NW 19mi, 31km
Updated: 08/14/2018 9:35am
Clear
Clear
 Wind from SW
Wind: SW 8 mph , 13 km/h
Temperature: 73°F , 23°C
Dew Point: 68°F , 20°C
Humidity: 83%
Barometer: 29.91 inHg , 1012.9 hPa
Clouds: Clear
Visibility: 10 miles , 16 km
2018/08/14 13:35 KMCD 141335Z AUTO 23007KT 180V270 10SM CLR 23/20 A2991 RMK AO2 T02280196
 
KPLN - Pellston, Michigan, USA
Distance from station: WSW 24mi, 38km
Updated: 08/14/2018 8:54am
Few Clouds
Few Clouds
 Wind from W
Wind: W 7 mph , 11 km/h
Temperature: 75°F , 24°C
Dew Point: 66°F , 19°C
Humidity: 74%
Barometer: 29.93 inHg , 1013.5 hPa
Clouds: Few Clouds
Visibility: 10 miles , 16 km
Cloud details: Few Clouds 6000 ft
2018/08/14 12:54 KPLN 141254Z AUTO 26006KT 10SM FEW060 24/19 A2993 RMK AO2 SLP132 T02390189
KPZQ - Rogers City, Michigan, USA
Distance from station: SE 31mi, 50km
Updated: 08/14/2018 9:35am
Clear
Clear
 Wind from WSW
Wind: WSW 12 mph , 19 km/h, Gust: 17 mph , 28 km/h
Temperature: 77°F , 25°C
Dew Point: 63°F , 17°C
Humidity: 61%
Barometer: 29.93 inHg , 1013.5 hPa
Clouds: Clear
Visibility: 10 miles , 16 km
2018/08/14 13:35 KPZQ 141335Z AUTO 25010G15KT 10SM CLR 25/17 A2993 RMK AO2 T02460166
 
KMGN - Harbor Springs, Michigan, USA
Distance from station: WSW 32mi, 52km
Updated: 08/14/2018 9:35am
Clear
Clear
 Wind from WSW
Wind: WSW 5 mph , 7 km/h
Temperature: 72°F , 22°C
Dew Point: 64°F , 18°C
Humidity: 78%
Barometer: 29.94 inHg , 1013.9 hPa
Clouds: Clear
Visibility: 10 miles , 16 km
2018/08/14 13:35 KMGN 141335Z AUTO 24004KT 10SM CLR 22/18 A2994 RMK AO2 T02210181
KDRM - Drummond Is, Michigan, USA
Distance from station: NE 36mi, 59km
Updated: 08/14/2018 9:35am
Clear
Clear
 Wind from SW
Wind: SW 3 mph , 6 km/h
Temperature: 73°F , 23°C
Dew Point: 66°F , 19°C
Humidity: 78%
Barometer: 29.91 inHg , 1012.9 hPa
Clouds: Clear
Visibility: 10 miles , 16 km
2018/08/14 13:35 KDRM 141335Z AUTO 23003KT 10SM CLR 23/19 A2991 RMK AO2 T02270189
 
KCIU - Chippewa Intl, Michigan, USA
Distance from station: N 41mi, 66km
Updated: 08/14/2018 8:56am
Clear
Clear
 Wind from SW
Wind: SW 6 mph , 9 km/h
Temperature: 72°F , 22°C
Dew Point: 70°F , 21°C
Humidity: 94%
Barometer: 29.91 inHg , 1012.9 hPa
Clouds: Clear
Visibility: 7 miles , 11 km
2018/08/14 12:56 KCIU 141256Z AUTO 22005KT 7SM CLR 22/21 A2991 RMK AO2 SLP142 T02170206
KGLR - Gaylord, Michigan, USA
Distance from station: SSW 48mi, 77km
Updated: 08/14/2018 8:53am
Clear
Clear
 Wind from SW
Wind: SW 7 mph , 11 km/h
Temperature: 70°F , 21°C
Dew Point: 63°F , 17°C
Humidity: 78%
Barometer: 29.98 inHg , 1015.2 hPa
Clouds: Clear
Visibility: 9 miles , 14 km
2018/08/14 12:53 KGLR 141253Z AUTO 23006KT 9SM CLR 21/17 A2998 RMK AO2 SLP143 T02110167
 
KCVX - Charlevoix, Michigan, USA
Distance from station: WSW 52mi, 83km
Updated: 08/14/2018 9:35am
Partly cloudy
Partly cloudy
 Wind from SW
Wind: SW 7 mph , 11 km/h
Temperature: 77°F , 25°C
Dew Point: 68°F , 20°C
Humidity: 74%
Barometer: 29.96 inHg , 1014.6 hPa
Clouds: Partly cloudy
Visibility: 10 miles , 16 km
Cloud details: Partly cloudy 6000 ft
2018/08/14 13:35 KCVX 141335Z AUTO 22006KT 10SM SCT060 25/20 A2996 RMK AO2 T02480204
KANJ - Sault Ste Marie, Michigan, USA
Distance from station: N 56mi, 89km
Updated: 08/14/2018 9:38am
Overcast
Overcast
 Wind from varies
Wind: varies 3 mph , 6 km/h
Temperature: 72°F , 22°C
Dew Point: 70°F , 21°C
Humidity: 94%
Barometer: 29.89 inHg , 1012.2 hPa
Clouds: Overcast
Visibility: 8 miles , 13 km
Cloud details: Overcast 500 ft
2018/08/14 13:38 KANJ 141338Z AUTO VRB03KT 8SM OVC005 22/21 A2989 RMK AO2 T02220206
 
KAPN - Alpena, Michigan, USA
Distance from station: SE 56mi, 89km
Updated: 08/14/2018 8:54am
Light rain, Clear
Light rain, Clear
 Wind from WSW
Wind: WSW 5 mph , 7 km/h
Temperature: 70°F , 21°C
Dew Point: 63°F , 17°C
Humidity: 78%
Barometer: 29.95 inHg , 1014.2 hPa
Summary: Light rain
Clouds: Clear
Visibility: 10 miles , 16 km
2018/08/14 12:54 KAPN 141254Z AUTO 24004KT 10SM -RA CLR 21/17 A2995 RMK AO2 SLP138 P0000 T02110172
CYAM - Sault Ste Marie, Ontario, Canada
Distance from station: N 56mi, 90km
Updated: 08/14/2018 9:37am
Mist, Mostly cloudy
Mist, Mostly cloudy
 Wind from ENE
Wind: ENE 5 mph , 7 km/h
Temperature: 70°F , 21°C
Dew Point: 70°F , 21°C
Humidity: 100%
Barometer: 29.88 inHg , 1011.9 hPa
Summary: Mist
Clouds: Mostly cloudy
Visibility: 3 miles , 5 km
Cloud details: Partly cloudy 300 ft
Partly cloudy 5800 ft
Mostly cloudy 22000 ft
2018/08/14 13:37 CYAM 141337Z 06004KT 040V110 3SM BR SCT003 SCT058 BKN220 21/21 A2988 RMK SF4SC1CS1 SC TR VIS N-NE 1 SLP120 DENSITY ALT 1500FT
 
KSJX - Beaver Island, Michigan, USA
Distance from station: W 60mi, 96km
Updated: 08/14/2018 9:35am
Clear
Clear
 Wind from WSW
Wind: WSW 8 mph , 13 km/h
Temperature: 77°F , 25°C
Dew Point: 68°F , 20°C
Humidity: 74%
Barometer: 29.92 inHg , 1013.2 hPa
Clouds: Clear
Visibility: 10 miles , 16 km
2018/08/14 13:35 KSJX 141335Z AUTO 24007KT 10SM CLR 25/20 A2992 RMK AO2 T02480202
KACB - Bellaire, Michigan, USA
Distance from station: SW 63mi, 102km
Updated: 08/14/2018 9:35am
Partly cloudy
Partly cloudy
 Wind from S
Wind: S 3 mph , 6 km/h
Temperature: 73°F , 23°C
Dew Point: 66°F , 19°C
Humidity: 78%
Barometer: 29.95 inHg , 1014.2 hPa
Clouds: Partly cloudy
Visibility: 10 miles , 16 km
Cloud details: Partly cloudy 5500 ft
2018/08/14 13:35 KACB 141335Z AUTO 18003KT 10SM SCT055 23/19 A2995 RMK AO2 T02250185
 
CWNL - Great Duck Island, Ontario, Canada
Distance from station: E 66mi, 106km
Updated: 08/14/2018 9:00am

 Wind from WSW
Wind: WSW 7 mph , 11 km/h
Temperature: 73°F , 23°C
Dew Point: 64°F , 18°C
Humidity: 74%
2018/08/14 13:00 CWNL 141300Z AUTO 25006KT 23/18 RMK AO1 SLP130 T02300180 55001
KERY - Newberry, Michigan, USA
Distance from station: NW 69mi, 112km
Updated: 08/14/2018 9:35am
Partly cloudy
Partly cloudy
 Wind from WSW
Wind: WSW 6 mph , 9 km/h
Temperature: 73°F , 23°C
Dew Point: 70°F , 21°C
Humidity: 89%
Barometer: 29.90 inHg , 1012.5 hPa
Clouds: Partly cloudy
Visibility: 10 miles , 16 km
Cloud details: Partly cloudy 4700 ft
Partly cloudy 6000 ft
Partly cloudy 7000 ft
2018/08/14 13:35 KERY 141335Z AUTO 25005KT 10SM SCT047 SCT060 SCT070 23/21 A2990 RMK AO2 T02310212
 
KGOV - Grayling Af, Michigan, USA
Distance from station: SSW 70mi, 113km
Updated: 08/14/2018 8:58am
Haze, Few clouds
Haze, Few clouds
 Wind from calm
Wind: Calm
Temperature: 64°F , 18°C
Dew Point: 59°F , 15°C
Humidity: 83%
Barometer: 29.97 inHg , 1014.9 hPa
Summary: Haze
Clouds: Few Clouds
Visibility: 3 miles , 5 km
Cloud details: Few Clouds 5000 ft
2018/08/14 12:58 KGOV 141258Z AUTO 00000KT 3SM HZ FEW050 18/15 A2997 RMK AO2 SLP150 T01820147 $